Chama, New Mexico
Current Conditions -  °F | °C
As of 2:15 AM on Monday 20 Oct 2014 (Local Time) from KPSO Reporting Station
Scattered Clouds Scattered Clouds  
Wind Chill: 40°   Ceiling: Unl
Heat Index: 40°   Visibility: 7mi
Dew Point: 39°   Wind: 0mph
Humidity: 99%   Direction: NA
Pressure: 30.28"   Gusts: NA
Location:  36.9°N, 106.58°W
Report Text: KPSO 200815Z AUTO 00000KT 7SM SCT100 04/04 A3028 RMK AO2 T00420041
Loading
Personal Weather Stations






























Interactive Weather Map
Tropical Storm Tracking
New forecast layout! Learn more

10-Day Weather Forecast

Advertisements
Track Severe Weather on mobile